Time;durP1;ratioP1;P1;durP2;ratioP2;P2;SDS_P1;SDS_P2;PMS_P1;PMS_P2;Temp;Humidity;BMP_temperature;BMP_pressure;BME280_temperature;BME280_humidity;BME280_pressure;Samples;Min_cycle;Max_cycle;Signal;HPM_P1;HPM_P2
2022/05/24 00:03:57;;;;;;;12.00;7.57;;;15.70;99.90;;;;;;6631528;88;20214;-76
2022/05/24 00:13:58;;;;;;;10.60;8.05;;;15.70;99.90;;;;;;6652284;89;21267;-77
2022/05/24 00:23:59;;;;;;;11.02;8.05;;;15.70;99.90;;;;;;6671076;88;20191;-77
2022/05/24 00:34:00;;;;;;;11.15;7.53;;;15.60;99.90;;;;;;6671334;88;20198;-77
2022/05/24 00:44:23;;;;;;;14.45;7.37;;;15.80;99.90;;;;;;6667395;88;20199;-77
2022/05/24 00:54:23;;;;;;;9.50;6.62;;;15.60;99.90;;;;;;6667266;89;20215;-77
2022/05/24 01:04:24;;;;;;;9.68;6.45;;;15.70;99.90;;;;;;6667517;88;20214;-77
2022/05/24 01:14:26;;;;;;;8.75;6.70;;;15.60;99.90;;;;;;6659904;88;20313;-77
2022/05/24 01:24:39;;;;;;;7.57;5.55;;;15.60;99.90;;;;;;6643274;89;20292;-76
2022/05/24 01:45:19;;;;;;;6.20;3.50;;;15.40;99.90;;;;;;6643968;89;20243;-77
2022/05/24 01:55:25;;;;;;;5.35;2.80;;;15.40;99.90;;;;;;6648901;89;20213;-77
2022/05/24 02:05:38;;;;;;;3.33;2.40;;;15.40;99.90;;;;;;6636960;89;20896;-78
2022/05/24 02:15:45;;;;;;;7.93;2.80;;;15.40;99.90;;;;;;6649240;88;20210;-78
2022/05/24 02:25:50;;;;;;;4.03;2.67;;;15.30;99.90;;;;;;6650721;88;20270;-78
2022/05/24 02:35:51;;;;;;;4.12;2.70;;;15.40;99.90;;;;;;6639045;89;20258;-78
2022/05/24 02:45:52;;;;;;;5.15;3.10;;;15.40;99.90;;;;;;6638121;89;20225;-79
2022/05/24 02:55:52;;;;;;;6.95;3.70;;;15.20;99.90;;;;;;6648926;89;20353;-79
2022/05/24 03:05:53;;;;;;;5.53;4.20;;;14.60;99.90;;;;;;6643609;88;20215;-79
2022/05/24 03:15:54;;;;;;;5.55;2.70;;;14.50;99.90;;;;;;6636723;88;20226;-79
2022/05/24 03:25:54;;;;;;;7.43;2.20;;;14.40;99.90;;;;;;6647115;89;20206;-78
2022/05/24 03:35:55;;;;;;;4.22;2.72;;;14.20;99.90;;;;;;6639686;88;20697;-79
2022/05/24 03:46:00;;;;;;;9.48;3.67;;;14.10;99.90;;;;;;6636198;89;20230;-79
2022/05/24 03:56:01;;;;;;;;;;;14.20;99.90;;;;;;6646575;89;20204;-78
2022/05/24 04:06:01;;;;;;;6.93;4.00;;;14.10;99.90;;;;;;6638848;89;20083;-78
2022/05/24 04:16:02;;;;;;;7.03;4.70;;;14.10;99.90;;;;;;6638514;88;20746;-77
2022/05/24 04:26:05;;;;;;;11.48;3.85;;;13.90;99.90;;;;;;6643547;89;20539;-78
2022/05/24 04:36:06;;;;;;;7.78;4.35;;;13.20;99.90;;;;;;6649296;89;20315;-77
2022/05/24 04:46:06;;;;;;;9.18;4.10;;;13.10;99.90;;;;;;6633512;89;20617;-78
2022/05/24 04:56:07;;;;;;;7.78;3.87;;;13.00;99.90;;;;;;6652497;88;20225;-79
2022/05/24 05:06:10;;;;;;;7.82;4.20;;;12.80;99.90;;;;;;6663956;88;20210;-78
2022/05/24 05:16:10;;;;;;;11.23;3.90;;;12.90;99.90;;;;;;6670161;88;20179;-79
2022/05/24 05:26:14;;;;;;;10.10;4.25;;;12.80;99.90;;;;;;6646144;88;20221;-79
2022/05/24 05:36:16;;;;;;;9.00;3.58;;;13.00;99.90;;;;;;6637418;89;20312;-79
2022/05/24 05:46:18;;;;;;;7.30;3.92;;;13.00;99.90;;;;;;6637363;89;20201;-79
2022/05/24 05:56:21;;;;;;;9.63;4.00;;;12.90;99.90;;;;;;6638734;89;20255;-79
2022/05/24 06:06:24;;;;;;;9.90;4.40;;;12.90;99.90;;;;;;6642132;89;20243;-80
2022/05/24 06:16:25;;;;;;;11.07;4.30;;;12.90;99.90;;;;;;6645541;89;20192;-81
2022/05/24 06:26:26;;;;;;;6.03;2.50;;;12.90;99.90;;;;;;6640320;89;20242;-80
2022/05/24 06:36:27;;;;;;;5.30;1.80;;;12.50;99.90;;;;;;6674556;89;20322;-80
2022/05/24 06:46:27;;;;;;;5.40;1.67;;;12.30;99.90;;;;;;6672799;88;20211;-80
2022/05/24 06:56:29;;;;;;;4.55;1.58;;;12.30;99.90;;;;;;6669275;88;20772;-80
2022/05/24 07:06:29;;;;;;;3.60;1.35;;;12.20;99.90;;;;;;6659837;89;20948;-80
2022/05/24 07:16:30;;;;;;;4.20;1.05;;;12.30;99.90;;;;;;6657542;89;20253;-80
2022/05/24 07:26:30;;;;;;;2.00;0.80;;;12.60;99.90;;;;;;6657072;89;20634;-80
2022/05/24 07:36:31;;;;;;;3.62;0.93;;;12.90;99.90;;;;;;6661574;89;20221;-79
2022/05/24 07:46:32;;;;;;;3.05;0.80;;;13.20;99.90;;;;;;6661177;89;20222;-79
2022/05/24 07:56:33;;;;;;;3.25;0.60;;;13.70;99.90;;;;;;6660476;89;20257;-79
2022/05/24 08:06:33;;;;;;;2.80;0.70;;;14.60;99.90;;;;;;6642105;89;20356;-79
2022/05/24 08:16:34;;;;;;;2.53;0.70;;;15.80;99.90;;;;;;6652606;89;20816;-79
2022/05/24 08:26:36;;;;;;;3.12;1.00;;;16.00;99.90;;;;;;6674874;88;20316;-80
2022/05/24 08:36:37;;;;;;;2.25;0.73;;;17.30;99.90;;;;;;6672382;88;20234;-80
2022/05/24 08:57:03;;;;;;;2.55;0.70;;;17.10;99.90;;;;;;6646526;89;20177;-79
2022/05/24 09:07:31;;;;;;;1.90;0.70;;;17.90;99.90;;;;;;6645317;89;20213;-80
2022/05/24 09:17:43;;;;;;;2.20;0.68;;;16.70;99.90;;;;;;6673119;88;20226;-79
2022/05/24 09:27:51;;;;;;;2.83;0.62;;;17.70;99.90;;;;;;6672079;89;20207;-79
2022/05/24 09:38:04;;;;;;;2.58;0.60;;;18.40;99.90;;;;;;6656148;88;20227;-78
2022/05/24 09:48:04;;;;;;;2.53;0.52;;;18.10;99.90;;;;;;6635878;88;20215;-79
2022/05/24 09:58:33;;;;;;;2.15;0.68;;;18.60;99.90;;;;;;6636513;89;20199;-78
2022/05/24 10:08:36;;;;;;;3.28;0.70;;;18.80;99.90;;;;;;6636455;89;20619;-78
2022/05/24 10:18:55;;;;;;;2.75;0.70;;;18.60;99.90;;;;;;6670540;89;20175;-79
2022/05/24 10:29:25;;;;;;;1.37;0.60;;;18.30;99.90;;;;;;6638210;88;20641;-79
2022/05/24 10:39:46;;;;;;;1.98;0.60;;;19.00;99.90;;;;;;6646512;88;20694;-79
2022/05/24 10:50:00;;;;;;;1.65;0.60;;;18.90;98.20;;;;;;6638178;89;20698;-79
2022/05/24 11:00:12;;;;;;;3.78;0.57;;;17.80;99.90;;;;;;6636617;89;20267;-79
2022/05/24 11:10:26;;;;;;;3.12;0.70;;;18.20;99.90;;;;;;6643966;89;20220;-77
2022/05/24 11:20:37;;;;;;;2.43;0.50;;;19.80;99.90;;;;;;6656024;88;20314;-80
2022/05/24 11:30:40;;;;;;;1.95;0.60;;;21.10;99.90;;;;;;6645486;88;20663;-78
2022/05/24 11:41:09;;;;;;;1.20;0.50;;;22.50;93.20;;;;;;6655640;89;20173;-78
2022/05/24 11:51:40;;;;;;;1.62;0.50;;;21.10;96.70;;;;;;6631908;89;20226;-78
2022/05/24 12:01:44;;;;;;;2.20;0.60;;;20.90;91.50;;;;;;6658081;89;20204;-78
2022/05/24 12:11:46;;;;;;;1.50;0.50;;;20.40;94.40;;;;;;6665377;88;20199;-78
2022/05/24 12:21:55;;;;;;;1.73;0.55;;;20.50;93.10;;;;;;6669488;88;20655;-77
2022/05/24 12:32:03;;;;;;;2.40;0.65;;;19.60;96.20;;;;;;6659589;88;20200;-78
2022/05/24 12:42:13;;;;;;;1.17;0.57;;;19.80;97.90;;;;;;6645921;88;20226;-78
2022/05/24 12:52:20;;;;;;;1.33;0.68;;;22.10;92.90;;;;;;6636929;89;20285;-78
2022/05/24 13:02:41;;;;;;;1.62;0.55;;;23.50;92.00;;;;;;6647009;89;20176;-78
2022/05/24 13:12:41;;;;;;;2.65;0.70;;;22.80;87.00;;;;;;6655985;88;20346;-78
2022/05/24 13:22:52;;;;;;;2.03;0.77;;;20.40;95.90;;;;;;6669922;89;20195;-79
2022/05/24 13:33:34;;;;;;;1.48;0.50;;;17.90;99.90;;;;;;6649993;89;20500;-78
2022/05/24 13:43:34;;;;;;;0.90;0.45;;;19.30;99.90;;;;;;6657181;88;20254;-78
2022/05/24 13:53:39;;;;;;;3.17;0.50;;;21.00;99.50;;;;;;6661817;88;20196;-78
2022/05/24 14:03:40;;;;;;;1.15;0.52;;;21.40;95.50;;;;;;6648350;89;20225;-78
2022/05/24 14:13:42;;;;;;;1.12;0.50;;;20.80;95.90;;;;;;6652359;88;20686;-79
2022/05/24 14:23:42;;;;;;;1.55;0.60;;;20.40;99.90;;;;;;6657890;89;20631;-78
2022/05/24 14:33:43;;;;;;;2.20;0.60;;;20.80;95.00;;;;;;6654702;88;20228;-79
2022/05/24 14:43:57;;;;;;;2.22;0.50;;;20.90;92.90;;;;;;6660066;89;20263;-79
2022/05/24 14:54:03;;;;;;;2.72;0.88;;;20.00;92.20;;;;;;6651837;89;20266;-79
2022/05/24 15:04:04;;;;;;;1.77;0.40;;;18.40;97.70;;;;;;6654967;88;20216;-79
2022/05/24 15:24:36;;;;;;;0.98;0.40;;;15.90;99.90;;;;;;6656471;89;20214;-81
2022/05/24 15:34:36;;;;;;;1.85;0.50;;;18.00;99.90;;;;;;6657439;89;20157;-79
2022/05/24 15:44:37;;;;;;;1.15;0.37;;;18.40;99.90;;;;;;6663390;89;20230;-79
2022/05/24 15:54:38;;;;;;;1.63;0.43;;;18.00;99.90;;;;;;6664961;88;20255;-79
2022/05/24 16:15:07;;;;;;;3.45;0.70;;;18.70;99.90;;;;;;6658799;89;20259;-79
2022/05/24 16:25:08;;;;;;;2.92;1.00;;;19.00;99.90;;;;;;6666683;89;20192;-79
2022/05/24 16:35:09;;;;;;;4.82;1.10;;;18.80;99.90;;;;;;6669773;89;20191;-79
2022/05/24 16:45:12;;;;;;;2.75;0.93;;;18.50;99.90;;;;;;6673421;89;20208;-81
2022/05/24 17:05:34;;;;;;;3.28;1.20;;;18.10;99.90;;;;;;6647252;89;20673;-80
2022/05/24 17:15:36;;;;;;;3.60;0.90;;;18.30;99.90;;;;;;6655604;89;20201;-80
2022/05/24 17:25:37;;;;;;;1.67;0.50;;;17.60;99.90;;;;;;6653297;89;20223;-79
2022/05/24 17:35:41;;;;;;;2.37;0.80;;;17.20;99.90;;;;;;6657241;89;20215;-79
2022/05/24 17:45:43;;;;;;;2.30;0.77;;;17.30;99.90;;;;;;6650698;88;20221;-79
2022/05/24 17:55:44;;;;;;;1.77;0.70;;;17.20;99.90;;;;;;6639541;89;20735;-78
2022/05/24 18:05:45;;;;;;;2.83;0.65;;;16.90;99.90;;;;;;6665397;88;20192;-79
2022/05/24 18:15:45;;;;;;;4.78;0.93;;;16.80;99.90;;;;;;6674349;89;20249;-79
2022/05/24 18:36:15;;;;;;;2.70;0.90;;;16.80;99.90;;;;;;6642924;89;20218;-80
2022/05/24 18:46:16;;;;;;;;;;;16.50;99.90;;;;;;6639311;89;20196;-81
2022/05/24 18:56:17;;;;;;;1.10;0.60;;;16.20;99.90;;;;;;6639332;88;20076;-80
2022/05/24 19:06:17;;;;;;;1.85;0.70;;;16.10;99.90;;;;;;6638453;89;20225;-80
2022/05/24 19:16:18;;;;;;;3.85;0.95;;;16.00;99.90;;;;;;6639248;89;20217;-80
2022/05/24 19:26:18;;;;;;;1.50;0.80;;;15.40;99.90;;;;;;6640214;89;20216;-80
2022/05/24 19:36:19;;;;;;;2.17;0.90;;;14.90;99.90;;;;;;6642789;89;20217;-79
2022/05/24 19:46:21;;;;;;;1.67;0.80;;;14.40;99.90;;;;;;6646815;89;20250;-80
2022/05/24 19:56:21;;;;;;;1.87;0.80;;;14.40;99.90;;;;;;6643088;89;20260;-80
2022/05/24 20:06:24;;;;;;;2.12;1.00;;;14.30;99.90;;;;;;6641312;89;20213;-79
2022/05/24 20:16:24;;;;;;;2.87;1.30;;;14.20;99.90;;;;;;6636392;88;20245;-79
2022/05/24 20:26:26;;;;;;;3.95;1.10;;;14.40;99.90;;;;;;6641856;89;20213;-78
2022/05/24 20:36:26;;;;;;;2.47;1.02;;;14.10;99.90;;;;;;6640953;89;20227;-79
2022/05/24 20:46:27;;;;;;;1.75;0.88;;;13.90;99.90;;;;;;6645278;89;20209;-80
2022/05/24 20:56:28;;;;;;;1.87;0.95;;;13.60;99.90;;;;;;6639458;89;20196;-79
2022/05/24 21:06:29;;;;;;;1.33;0.82;;;13.40;99.90;;;;;;6643118;89;20209;-78
2022/05/24 21:16:30;;;;;;;4.97;1.00;;;13.30;99.90;;;;;;6644286;89;20199;-78
2022/05/24 21:36:52;;;;;;;1.83;1.00;;;12.90;99.90;;;;;;6644774;89;20173;-79
2022/05/24 21:46:52;;;;;;;2.53;0.83;;;12.80;99.90;;;;;;6645939;89;20702;-78
2022/05/24 21:56:53;;;;;;;4.30;1.15;;;12.90;99.90;;;;;;6645480;89;20538;-79
2022/05/24 22:06:55;;;;;;;2.67;0.95;;;12.90;99.90;;;;;;6643435;89;20796;-79
2022/05/24 22:27:57;;;;;;;1.98;1.12;;;12.80;99.90;;;;;;6644787;88;20261;-79
2022/05/24 22:37:58;;;;;;;1.85;0.80;;;12.90;99.90;;;;;;6643078;89;20721;-79
2022/05/24 22:47:59;;;;;;;3.55;0.98;;;12.90;99.90;;;;;;6644134;89;20210;-79
2022/05/24 22:58:00;;;;;;;3.35;1.20;;;12.90;99.90;;;;;;6645399;89;20338;-78
2022/05/24 23:08:01;;;;;;;2.42;0.90;;;12.80;99.90;;;;;;6645242;89;20198;-79
2022/05/24 23:18:01;;;;;;;2.80;0.82;;;12.60;99.90;;;;;;6628827;89;20259;-79
2022/05/24 23:28:43;;;;;;;1.42;0.73;;;12.90;99.90;;;;;;6639780;77;20652;-77
2022/05/24 23:38:43;;;;;;;1.98;0.85;;;12.70;99.90;;;;;;6634971;89;20201;-77
2022/05/24 23:48:44;;;;;;;5.65;1.27;;;12.70;99.90;;;;;;6635874;89;20189;-78
2022/05/24 23:58:45;;;;;;;3.30;1.25;;;12.40;99.90;;;;;;6636683;89;20218;-77
